Time;durP1;ratioP1;P1;durP2;ratioP2;P2;SDS_P1;SDS_P2;PMS_P1;PMS_P2;Temp;Humidity;BMP_temperature;BMP_pressure;BME280_temperature;BME280_humidity;BME280_pressure;Samples;Min_cycle;Max_cycle;Signal;HPM_P1;HPM_P2
2023/01/28 00:01:03;;;;;;;;;26.50;21.75;;;;;;;;5058102;28;51213;-50
2023/01/28 00:03:51;;;;;;;;;24.25;20.75;;;;;;;;5060935;28;51108;-53
2023/01/28 00:06:35;;;;;;;;;23.00;19.75;;;;;;;;5062286;28;51232;-51
2023/01/28 00:09:19;;;;;;;;;26.75;21.25;;;;;;;;5062124;28;51468;-50
2023/01/28 00:12:04;;;;;;;;;27.25;20.75;;;;;;;;5061931;28;51026;-49
2023/01/28 00:14:49;;;;;;;;;24.50;21.25;;;;;;;;5058708;28;51471;-54
2023/01/28 00:17:33;;;;;;;;;25.00;19.75;;;;;;;;5062562;28;51112;-50
2023/01/28 00:20:18;;;;;;;;;25.75;22.00;;;;;;;;5060867;28;51168;-53
2023/01/28 00:23:02;;;;;;;;;20.25;18.75;;;;;;;;5060510;28;51211;-47
2023/01/28 00:25:46;;;;;;;;;28.00;23.25;;;;;;;;5061038;28;51486;-51
2023/01/28 00:28:31;;;;;;;;;23.25;19.75;;;;;;;;5061681;28;51175;-49
2023/01/28 00:31:16;;;;;;;;;19.00;18.25;;;;;;;;5062596;28;51128;-49
2023/01/28 00:34:01;;;;;;;;;23.50;19.50;;;;;;;;5059464;28;51065;-53
2023/01/28 00:36:56;;;;;;;;;24.50;19.50;;;;;;;;5059033;28;51165;-49
2023/01/28 00:39:40;;;;;;;;;26.00;19.75;;;;;;;;5061788;28;51293;-51
2023/01/28 00:42:24;;;;;;;;;20.00;17.00;;;;;;;;5060142;28;51148;-48
2023/01/28 00:45:10;;;;;;;;;27.00;23.25;;;;;;;;5059324;28;51256;-50
2023/01/28 00:47:54;;;;;;;;;24.50;18.50;;;;;;;;5061743;28;51177;-52
2023/01/28 00:50:39;;;;;;;;;23.00;21.50;;;;;;;;5060412;28;51101;-52
2023/01/28 00:53:23;;;;;;;;;21.00;19.50;;;;;;;;5059605;28;51157;-51
2023/01/28 00:56:10;;;;;;;;;29.25;24.25;;;;;;;;5057939;28;51363;-52
2023/01/28 00:58:54;;;;;;;;;30.00;19.50;;;;;;;;5059759;28;51160;-53
2023/01/28 01:01:38;;;;;;;;;25.00;20.75;;;;;;;;5058904;28;51424;-53
2023/01/28 01:04:26;;;;;;;;;25.75;18.75;;;;;;;;5059771;28;51459;-49
2023/01/28 01:07:10;;;;;;;;;21.75;18.75;;;;;;;;5061294;28;51458;-51
2023/01/28 01:09:55;;;;;;;;;26.25;21.50;;;;;;;;5060327;28;51052;-49
2023/01/28 01:12:39;;;;;;;;;25.25;20.00;;;;;;;;5060366;28;51110;-49
2023/01/28 01:15:24;;;;;;;;;24.75;21.75;;;;;;;;5059247;28;51551;-50
2023/01/28 01:18:08;;;;;;;;;23.00;20.25;;;;;;;;5061060;28;51066;-53
2023/01/28 01:20:57;;;;;;;;;22.00;19.50;;;;;;;;5060025;28;51160;-49
2023/01/28 01:23:41;;;;;;;;;15.25;12.00;;;;;;;;5059990;28;51580;-51
2023/01/28 01:26:26;;;;;;;;;26.50;23.25;;;;;;;;5059914;28;51043;-53
2023/01/28 01:29:10;;;;;;;;;21.00;19.50;;;;;;;;5059545;28;51216;-51
2023/01/28 01:31:55;;;;;;;;;27.00;22.75;;;;;;;;5056223;28;51169;-53
2023/01/28 01:34:39;;;;;;;;;23.75;21.25;;;;;;;;5059096;28;51080;-48
2023/01/28 01:37:23;;;;;;;;;24.00;20.25;;;;;;;;5061169;28;51187;-52
2023/01/28 01:40:09;;;;;;;;;30.50;22.00;;;;;;;;5060117;28;51141;-49
2023/01/28 01:42:54;;;;;;;;;23.75;21.25;;;;;;;;5060092;28;51098;-49
2023/01/28 01:45:38;;;;;;;;;24.50;20.00;;;;;;;;5055101;28;51125;-54
2023/01/28 01:48:32;;;;;;;;;24.00;16.00;;;;;;;;5059454;28;52276;-51
2023/01/28 01:51:24;;;;;;;;;20.25;18.50;;;;;;;;5057052;28;51068;-53
2023/01/28 01:54:08;;;;;;;;;26.50;21.00;;;;;;;;5058667;28;51258;-50
2023/01/28 01:56:54;;;;;;;;;28.75;23.00;;;;;;;;5072525;27;51457;-52
2023/01/28 01:59:39;;;;;;;;;26.00;20.25;;;;;;;;5055372;28;51070;-50
2023/01/28 02:02:24;;;;;;;;;25.50;20.25;;;;;;;;5059498;28;51129;-53
2023/01/28 02:05:09;;;;;;;;;23.75;19.50;;;;;;;;5058809;28;51235;-51
2023/01/28 02:11:02;;;;;;;;;21.75;19.00;;;;;;;;5059224;28;51141;-51
2023/01/28 02:13:49;;;;;;;;;27.50;23.00;;;;;;;;5058562;28;51441;-49
2023/01/28 02:16:33;;;;;;;;;24.50;22.25;;;;;;;;5057903;28;51141;-50
2023/01/28 02:19:19;;;;;;;;;22.75;21.25;;;;;;;;5059030;28;51646;-50
2023/01/28 02:22:15;;;;;;;;;26.75;22.00;;;;;;;;5056133;28;51054;-51
2023/01/28 02:25:12;;;;;;;;;28.75;25.00;;;;;;;;5058477;28;52429;-50
2023/01/28 02:28:25;;;;;;;;;25.00;21.50;;;;;;;;5059036;28;51178;-49
2023/01/28 02:31:14;;;;;;;;;24.50;23.75;;;;;;;;5056182;28;51467;-51
2023/01/28 02:34:12;;;;;;;;;24.25;22.50;;;;;;;;5059090;28;51147;-48
2023/01/28 02:36:59;;;;;;;;;26.75;21.00;;;;;;;;5055377;28;51099;-50
2023/01/28 02:39:47;;;;;;;;;27.50;21.75;;;;;;;;5059232;28;51208;-49
2023/01/28 02:42:34;;;;;;;;;24.25;19.50;;;;;;;;5060234;28;51053;-52
2023/01/28 02:45:23;;;;;;;;;28.00;20.00;;;;;;;;5058832;28;51461;-50
2023/01/28 02:48:07;;;;;;;;;21.50;19.75;;;;;;;;5056274;28;50998;-47
2023/01/28 02:50:57;;;;;;;;;27.50;20.00;;;;;;;;5058758;28;51048;-48
2023/01/28 02:53:53;;;;;;;;;21.00;18.25;;;;;;;;5056165;28;51039;-54
2023/01/28 02:56:44;;;;;;;;;20.50;17.75;;;;;;;;5057598;28;51082;-48
2023/01/28 02:59:49;;;;;;;;;27.75;24.25;;;;;;;;5056028;28;51102;-50
2023/01/28 03:02:53;;;;;;;;;27.25;20.50;;;;;;;;5058534;28;51144;-51
2023/01/28 03:06:02;;;;;;;;;25.50;22.50;;;;;;;;5056578;28;51130;-51
2023/01/28 03:37:16;;;;;;;;;26.50;21.00;;;;;;;;5061475;28;51089;-52
2023/01/28 03:40:01;;;;;;;;;24.25;20.25;;;;;;;;5061534;28;51097;-49
2023/01/28 03:42:45;;;;;;;;;25.25;21.50;;;;;;;;5062700;28;51176;-49
2023/01/28 03:45:30;;;;;;;;;29.25;21.75;;;;;;;;5057950;28;51409;-50
2023/01/28 03:48:14;;;;;;;;;24.25;21.75;;;;;;;;5060855;28;51191;-49
2023/01/28 03:51:01;;;;;;;;;27.50;21.00;;;;;;;;5061363;28;51539;-50
2023/01/28 03:53:45;;;;;;;;;26.75;19.25;;;;;;;;5059131;28;51050;-50
2023/01/28 03:56:36;;;;;;;;;24.50;21.00;;;;;;;;5062432;28;51172;-50
2023/01/28 03:59:20;;;;;;;;;27.75;20.75;;;;;;;;5060119;28;51495;-50
2023/01/28 04:02:05;;;;;;;;;27.25;21.00;;;;;;;;5061786;28;51124;-49
2023/01/28 04:04:49;;;;;;;;;22.75;20.75;;;;;;;;5062315;28;51479;-53
2023/01/28 04:07:33;;;;;;;;;28.50;22.75;;;;;;;;5060695;28;51122;-52
2023/01/28 04:10:18;;;;;;;;;27.75;22.75;;;;;;;;5061908;28;51160;-49
2023/01/28 04:13:03;;;;;;;;;25.25;21.00;;;;;;;;5061798;28;51106;-55
2023/01/28 04:15:47;;;;;;;;;25.00;22.00;;;;;;;;5062476;28;51427;-49
2023/01/28 04:18:32;;;;;;;;;22.25;21.50;;;;;;;;5061077;28;51217;-52
2023/01/28 04:21:16;;;;;;;;;25.25;21.50;;;;;;;;5057987;28;51246;-51
2023/01/28 04:24:01;;;;;;;;;22.25;17.00;;;;;;;;5061778;28;51592;-49
2023/01/28 04:26:45;;;;;;;;;22.25;20.75;;;;;;;;5062110;28;51158;-51
2023/01/28 04:29:30;;;;;;;;;25.25;19.50;;;;;;;;5061805;28;51645;-49
2023/01/28 04:32:14;;;;;;;;;25.50;21.00;;;;;;;;5061314;28;51122;-52
2023/01/28 04:34:58;;;;;;;;;22.00;20.50;;;;;;;;5060073;28;51167;-49
2023/01/28 04:37:43;;;;;;;;;31.25;22.00;;;;;;;;5061132;28;51125;-51
2023/01/28 04:40:27;;;;;;;;;24.25;21.25;;;;;;;;5060126;28;51521;-51
2023/01/28 04:43:12;;;;;;;;;28.00;25.00;;;;;;;;5061657;28;51121;-52
2023/01/28 04:45:56;;;;;;;;;30.75;24.50;;;;;;;;5057927;28;51103;-51
2023/01/28 04:48:41;;;;;;;;;31.25;23.00;;;;;;;;5058403;28;51007;-53
2023/01/28 04:51:25;;;;;;;;;29.50;21.75;;;;;;;;5058875;28;51180;-50
2023/01/28 04:54:09;;;;;;;;;31.75;23.75;;;;;;;;5058100;28;51568;-52
2023/01/28 04:56:55;;;;;;;;;25.00;21.50;;;;;;;;5061603;28;51129;-50
2023/01/28 04:59:39;;;;;;;;;29.00;23.00;;;;;;;;5056785;28;51173;-50
2023/01/28 05:02:24;;;;;;;;;26.75;21.25;;;;;;;;5056732;28;51136;-49
2023/01/28 05:05:08;;;;;;;;;25.50;21.50;;;;;;;;5052976;28;51482;-53
2023/01/28 05:07:53;;;;;;;;;26.25;23.75;;;;;;;;5055577;28;51514;-49
2023/01/28 05:10:39;;;;;;;;;28.75;25.50;;;;;;;;5056553;28;51058;-52
2023/01/28 05:13:24;;;;;;;;;24.25;22.25;;;;;;;;5056102;28;51069;-52
2023/01/28 05:16:08;;;;;;;;;27.00;26.50;;;;;;;;5059187;28;51462;-51
2023/01/28 05:18:52;;;;;;;;;27.50;25.25;;;;;;;;5058161;28;51216;-51
2023/01/28 05:21:37;;;;;;;;;31.25;26.00;;;;;;;;5059336;28;51175;-51
2023/01/28 05:24:21;;;;;;;;;25.25;21.75;;;;;;;;5053295;28;52266;-54
2023/01/28 05:27:06;;;;;;;;;29.25;23.75;;;;;;;;5053595;28;51148;-53
2023/01/28 05:29:51;;;;;;;;;27.75;24.75;;;;;;;;5058481;28;51984;-52
2023/01/28 05:32:35;;;;;;;;;26.75;24.25;;;;;;;;5058716;28;51123;-51
2023/01/28 05:35:19;;;;;;;;;26.75;23.00;;;;;;;;5052229;28;51483;-48
2023/01/28 05:38:04;;;;;;;;;27.75;22.50;;;;;;;;5052969;28;50996;-51
2023/01/28 05:40:48;;;;;;;;;27.50;25.00;;;;;;;;5053020;28;51582;-51
2023/01/28 05:43:32;;;;;;;;;26.75;23.00;;;;;;;;5056914;28;51147;-48
2023/01/28 05:46:17;;;;;;;;;29.75;21.50;;;;;;;;5055240;28;51168;-52
2023/01/28 05:49:01;;;;;;;;;32.25;24.00;;;;;;;;5055469;28;51037;-50
2023/01/28 05:51:47;;;;;;;;;20.75;16.50;;;;;;;;5060280;28;51169;-50
2023/01/28 05:54:31;;;;;;;;;28.00;26.50;;;;;;;;5059025;28;52699;-48
2023/01/28 05:57:16;;;;;;;;;21.50;19.25;;;;;;;;5058980;28;51104;-50
2023/01/28 06:00:00;;;;;;;;;29.25;21.75;;;;;;;;5059429;28;51113;-50
2023/01/28 06:02:44;;;;;;;;;29.00;23.50;;;;;;;;5058221;28;51596;-49
2023/01/28 06:05:29;;;;;;;;;30.50;23.00;;;;;;;;5057784;28;51187;-52
2023/01/28 06:08:13;;;;;;;;;26.25;23.25;;;;;;;;5070610;27;51185;-47
2023/01/28 06:10:58;;;;;;;;;26.75;25.25;;;;;;;;5059046;28;51061;-49
2023/01/28 06:13:42;;;;;;;;;30.00;22.75;;;;;;;;5057414;28;51160;-54
2023/01/28 06:16:26;;;;;;;;;34.25;26.50;;;;;;;;5056815;28;51147;-51
2023/01/28 06:19:11;;;;;;;;;26.50;23.75;;;;;;;;5060358;28;51446;-53
2023/01/28 06:21:55;;;;;;;;;26.00;22.50;;;;;;;;5051719;28;52687;-53
2023/01/28 06:24:40;;;;;;;;;28.25;25.00;;;;;;;;5055960;28;51106;-50
2023/01/28 06:27:24;;;;;;;;;25.75;21.75;;;;;;;;5047862;28;51418;-52
2023/01/28 06:30:09;;;;;;;;;28.00;25.25;;;;;;;;5054708;28;51058;-54
2023/01/28 06:32:54;;;;;;;;;37.50;29.00;;;;;;;;5054296;28;51200;-51
2023/01/28 06:35:38;;;;;;;;;25.75;23.00;;;;;;;;5052007;28;51010;-50
2023/01/28 06:38:23;;;;;;;;;29.25;26.75;;;;;;;;5056821;28;51180;-51
2023/01/28 06:41:07;;;;;;;;;24.75;22.75;;;;;;;;5059751;28;51127;-55
2023/01/28 06:43:52;;;;;;;;;27.75;24.00;;;;;;;;5059060;28;51056;-52
2023/01/28 06:46:36;;;;;;;;;29.00;23.00;;;;;;;;5059712;28;51123;-51
2023/01/28 06:49:21;;;;;;;;;24.75;20.75;;;;;;;;5055677;28;51182;-53
2023/01/28 06:52:05;;;;;;;;;25.50;23.50;;;;;;;;5059868;28;51505;-50
2023/01/28 06:54:49;;;;;;;;;28.00;22.50;;;;;;;;5059758;28;51101;-51
2023/01/28 06:57:36;;;;;;;;;25.00;22.00;;;;;;;;5059036;28;52298;-51
2023/01/28 07:00:20;;;;;;;;;28.75;26.00;;;;;;;;5056909;28;51178;-51
2023/01/28 07:05:51;;;;;;;;;28.75;24.50;;;;;;;;5032198;28;51183;-53
2023/01/28 07:08:36;;;;;;;;;30.25;25.25;;;;;;;;5035269;28;51522;-55
2023/01/28 07:11:21;;;;;;;;;27.75;24.50;;;;;;;;5033034;28;51190;-52
2023/01/28 07:14:05;;;;;;;;;29.75;24.75;;;;;;;;5037266;28;51143;-52
2023/01/28 07:16:50;;;;;;;;;27.50;25.00;;;;;;;;5032728;28;51583;-52
2023/01/28 07:19:34;;;;;;;;;32.75;22.00;;;;;;;;5020461;28;51300;-54
2023/01/28 07:22:18;;;;;;;;;34.00;25.75;;;;;;;;5037169;28;51200;-50
2023/01/28 07:25:03;;;;;;;;;26.75;20.75;;;;;;;;5036652;28;51071;-50
2023/01/28 07:27:48;;;;;;;;;25.25;23.75;;;;;;;;5034227;28;51609;-53
2023/01/28 07:30:50;;;;;;;;;24.75;19.25;;;;;;;;4325133;32;51548;-52
2023/01/28 07:33:35;;;;;;;;;26.00;25.25;;;;;;;;5076313;27;51098;-52
2023/01/28 07:36:19;;;;;;;;;31.00;25.75;;;;;;;;5078577;27;51345;-52
2023/01/28 07:39:04;;;;;;;;;29.00;24.50;;;;;;;;5075224;27;51108;-52
2023/01/28 07:41:48;;;;;;;;;24.75;22.00;;;;;;;;5076837;27;51344;-52
2023/01/28 07:44:34;;;;;;;;;25.00;22.25;;;;;;;;5088954;27;51156;-55
2023/01/28 07:47:19;;;;;;;;;29.50;22.25;;;;;;;;5077422;27;51188;-53
2023/01/28 07:50:03;;;;;;;;;22.25;22.25;;;;;;;;5075559;27;51076;-50
2023/01/28 07:52:48;;;;;;;;;23.75;19.25;;;;;;;;5075848;28;51572;-51
2023/01/28 07:55:34;;;;;;;;;23.50;17.75;;;;;;;;5069629;27;51498;-54
2023/01/28 07:58:19;;;;;;;;;24.00;17.75;;;;;;;;5072027;27;51125;-52
2023/01/28 08:01:03;;;;;;;;;17.75;17.75;;;;;;;;5075684;27;51217;-48
2023/01/28 08:03:48;;;;;;;;;20.25;20.00;;;;;;;;5075549;27;51173;-55
2023/01/28 08:06:36;;;;;;;;;22.00;16.75;;;;;;;;5082224;27;51500;-53
2023/01/28 08:09:21;;;;;;;;;20.00;16.50;;;;;;;;5075467;27;51145;-54
2023/01/28 08:12:05;;;;;;;;;21.25;14.75;;;;;;;;5077431;27;51178;-51
2023/01/28 08:14:50;;;;;;;;;19.75;17.00;;;;;;;;5076966;27;51227;-52
2023/01/28 08:17:34;;;;;;;;;21.25;21.25;;;;;;;;5074510;28;51590;-51
2023/01/28 08:20:19;;;;;;;;;50.00;38.25;;;;;;;;5072117;27;51150;-49
2023/01/28 08:23:12;;;;;;;;;37.25;29.00;;;;;;;;5077900;27;51064;-57
2023/01/28 08:25:57;;;;;;;;;34.25;27.50;;;;;;;;5071784;27;51771;-48
2023/01/28 08:28:41;;;;;;;;;31.50;28.75;;;;;;;;5076483;27;51113;-52
2023/01/28 08:31:27;;;;;;;;;53.25;42.50;;;;;;;;5069370;28;51672;-53
2023/01/28 08:34:12;;;;;;;;;46.00;36.75;;;;;;;;5070639;28;51149;-54
2023/01/28 08:36:57;;;;;;;;;65.75;51.50;;;;;;;;5076354;28;51186;-54
2023/01/28 08:39:41;;;;;;;;;60.75;46.25;;;;;;;;5072002;28;51437;-52
2023/01/28 08:42:26;;;;;;;;;52.50;42.50;;;;;;;;5058152;28;51143;-52
2023/01/28 08:45:10;;;;;;;;;44.50;34.25;;;;;;;;5056296;28;51094;-53
2023/01/28 08:48:03;;;;;;;;;33.00;27.75;;;;;;;;5060077;28;51090;-51
2023/01/28 08:50:47;;;;;;;;;26.25;21.50;;;;;;;;5055622;28;51393;-54
2023/01/28 08:53:32;;;;;;;;;29.25;25.00;;;;;;;;5058639;28;51138;-52
2023/01/28 08:56:16;;;;;;;;;28.75;24.50;;;;;;;;5061375;28;51527;-50
2023/01/28 08:59:00;;;;;;;;;37.50;29.50;;;;;;;;5050916;28;51084;-50
2023/01/28 09:01:45;;;;;;;;;32.25;26.25;;;;;;;;5054721;28;51107;-54
2023/01/28 09:04:29;;;;;;;;;32.75;23.50;;;;;;;;5055654;28;51505;-52
2023/01/28 09:07:14;;;;;;;;;23.00;21.25;;;;;;;;5053196;28;51031;-52
2023/01/28 09:09:58;;;;;;;;;27.25;24.50;;;;;;;;5060535;28;51046;-52
2023/01/28 09:12:43;;;;;;;;;32.25;28.00;;;;;;;;5045667;28;51067;-50
2023/01/28 09:15:27;;;;;;;;;26.25;22.75;;;;;;;;5041023;28;51060;-52
2023/01/28 09:18:12;;;;;;;;;27.50;20.25;;;;;;;;5040922;28;51234;-54
2023/01/28 09:20:56;;;;;;;;;31.75;25.50;;;;;;;;5043420;28;51182;-48
2023/01/28 09:23:40;;;;;;;;;31.75;24.50;;;;;;;;5041700;28;51530;-57
2023/01/28 09:26:25;;;;;;;;;21.50;18.50;;;;;;;;5044290;28;51149;-53
2023/01/28 09:29:09;;;;;;;;;26.25;22.75;;;;;;;;5047405;28;51347;-52
2023/01/28 09:31:54;;;;;;;;;28.25;24.00;;;;;;;;5057932;27;51617;-52
2023/01/28 09:34:38;;;;;;;;;34.75;28.00;;;;;;;;5056148;28;52464;-52
2023/01/28 09:37:22;;;;;;;;;25.50;21.50;;;;;;;;5058109;28;51497;-51
2023/01/28 09:40:10;;;;;;;;;25.75;24.00;;;;;;;;5057783;27;51544;-51
2023/01/28 09:42:57;;;;;;;;;28.00;24.75;;;;;;;;5058676;27;51661;-50
2023/01/28 09:45:49;;;;;;;;;22.50;19.50;;;;;;;;5055999;28;51379;-50
2023/01/28 09:48:37;;;;;;;;;29.25;22.25;;;;;;;;5040623;28;51530;-50
2023/01/28 09:51:30;;;;;;;;;22.25;20.00;;;;;;;;5060737;28;51636;-52
2023/01/28 09:54:20;;;;;;;;;31.50;23.25;;;;;;;;5057319;28;51514;-55
2023/01/28 09:57:19;;;;;;;;;26.00;21.00;;;;;;;;5054878;28;51103;-51
2023/01/28 10:00:11;;;;;;;;;22.25;20.50;;;;;;;;5056343;28;51222;-53
2023/01/28 10:03:21;;;;;;;;;26.25;22.25;;;;;;;;5058132;27;51136;-49
2023/01/28 10:06:24;;;;;;;;;32.25;21.00;;;;;;;;5056905;27;51102;-50
2023/01/28 10:09:11;;;;;;;;;27.25;24.00;;;;;;;;5056110;28;51130;-52
2023/01/28 10:11:55;;;;;;;;;26.00;22.25;;;;;;;;5058359;27;51532;-49
2023/01/28 10:14:57;;;;;;;;;26.75;23.50;;;;;;;;5056797;28;51224;-50
2023/01/28 10:17:44;;;;;;;;;27.50;18.75;;;;;;;;5058013;27;51171;-56
2023/01/28 10:20:31;;;;;;;;;27.50;24.00;;;;;;;;5055762;28;51185;-52
2023/01/28 10:23:29;;;;;;;;;25.00;18.50;;;;;;;;5056603;28;51475;-49
2023/01/28 10:26:21;;;;;;;;;20.50;20.50;;;;;;;;5055586;28;51107;-50
2023/01/28 10:29:12;;;;;;;;;23.00;21.50;;;;;;;;5055351;28;51539;-53
2023/01/28 10:32:04;;;;;;;;;24.75;19.75;;;;;;;;5055063;28;51040;-53
2023/01/28 10:34:50;;;;;;;;;27.25;24.75;;;;;;;;5057752;28;51091;-51
2023/01/28 10:40:59;;;;;;;;;25.25;23.00;;;;;;;;5047164;28;51165;-55
2023/01/28 10:43:44;;;;;;;;;25.25;20.25;;;;;;;;5054758;28;51336;-51
2023/01/28 10:46:33;;;;;;;;;26.75;25.25;;;;;;;;5062889;27;51538;-52
2023/01/28 10:52:52;;;;;;;;;32.50;25.50;;;;;;;;4994278;28;51163;-56
2023/01/28 10:55:46;;;;;;;;;26.25;21.25;;;;;;;;4995957;28;51204;-52
2023/01/28 10:58:33;;;;;;;;;28.50;23.75;;;;;;;;4998450;28;51491;-56
2023/01/28 11:01:17;;;;;;;;;27.50;24.50;;;;;;;;4989802;28;51530;-50
2023/01/28 11:04:02;;;;;;;;;26.50;22.25;;;;;;;;4990937;28;51077;-50
2023/01/28 11:06:54;;;;;;;;;27.00;22.50;;;;;;;;4991383;28;51407;-51
2023/01/28 11:09:43;;;;;;;;;29.25;23.25;;;;;;;;4991384;28;51267;-51
2023/01/28 11:12:29;;;;;;;;;30.25;24.25;;;;;;;;4985870;28;51674;-50
2023/01/28 11:15:17;;;;;;;;;28.50;24.00;;;;;;;;4990349;28;51448;-53
2023/01/28 11:18:05;;;;;;;;;31.75;27.75;;;;;;;;4992240;28;51281;-54
2023/01/28 11:20:51;;;;;;;;;28.75;26.50;;;;;;;;4994894;28;51500;-55
2023/01/28 11:23:40;;;;;;;;;27.25;25.75;;;;;;;;4992879;28;51533;-55
2023/01/28 11:26:27;;;;;;;;;26.00;22.75;;;;;;;;4991947;28;51292;-50
2023/01/28 11:29:26;;;;;;;;;43.50;34.00;;;;;;;;5019630;28;51613;-52
2023/01/28 11:32:17;;;;;;;;;37.00;30.75;;;;;;;;5061914;28;51321;-53
2023/01/28 11:35:04;;;;;;;;;63.25;48.25;;;;;;;;5059656;28;51440;-51
2023/01/28 11:37:48;;;;;;;;;46.25;38.00;;;;;;;;5055125;28;51256;-53
2023/01/28 11:40:33;;;;;;;;;43.00;36.25;;;;;;;;5055622;28;52132;-49
2023/01/28 11:43:20;;;;;;;;;34.25;31.50;;;;;;;;5053749;28;52384;-51
2023/01/28 11:46:04;;;;;;;;;41.00;35.25;;;;;;;;5049693;28;51161;-53
2023/01/28 11:48:52;;;;;;;;;44.75;36.50;;;;;;;;5053689;28;52132;-54
2023/01/28 11:51:46;;;;;;;;;37.00;30.25;;;;;;;;5054247;28;51169;-49
2023/01/28 11:54:48;;;;;;;;;34.25;28.75;;;;;;;;5057830;28;51168;-51
2023/01/28 11:57:56;;;;;;;;;38.75;32.00;;;;;;;;5056241;28;51187;-50
2023/01/28 12:00:45;;;;;;;;;34.25;26.25;;;;;;;;5050168;27;51191;-48
2023/01/28 12:03:48;;;;;;;;;31.00;26.25;;;;;;;;5054578;28;51145;-50
2023/01/28 12:06:32;;;;;;;;;36.25;31.75;;;;;;;;5055588;28;51704;-47
2023/01/28 12:09:46;;;;;;;;;33.00;29.75;;;;;;;;5054434;28;51177;-55
2023/01/28 12:12:49;;;;;;;;;37.75;30.00;;;;;;;;5008631;28;51388;-54
2023/01/28 12:15:47;;;;;;;;;38.00;30.25;;;;;;;;5052184;28;51165;-52
2023/01/28 12:18:32;;;;;;;;;45.25;35.00;;;;;;;;5062046;27;51495;-53
2023/01/28 12:21:22;;;;;;;;;33.25;30.50;;;;;;;;5058683;28;51477;-51
2023/01/28 12:24:22;;;;;;;;;33.25;29.50;;;;;;;;5057125;28;52261;-49
2023/01/28 12:27:17;;;;;;;;;35.75;28.25;;;;;;;;5061634;27;51050;-55
2023/01/28 12:30:10;;;;;;;;;28.50;26.00;;;;;;;;5063026;27;51316;-49
2023/01/28 12:33:03;;;;;;;;;30.50;27.25;;;;;;;;5059707;27;51563;-49
2023/01/28 12:36:06;;;;;;;;;33.00;29.50;;;;;;;;5057831;28;51710;-53
2023/01/28 12:38:53;;;;;;;;;35.00;31.00;;;;;;;;5058846;27;52389;-52
2023/01/28 12:41:41;;;;;;;;;42.00;32.75;;;;;;;;5057707;27;51504;-55
2023/01/28 12:44:30;;;;;;;;;37.50;32.25;;;;;;;;5055376;28;51105;-52
2023/01/28 12:47:31;;;;;;;;;41.50;33.50;;;;;;;;5061602;27;51618;-55
2023/01/28 12:50:38;;;;;;;;;42.50;33.75;;;;;;;;5057560;28;51316;-51
2023/01/28 12:53:27;;;;;;;;;36.75;31.50;;;;;;;;5055336;28;51393;-52
2023/01/28 12:56:18;;;;;;;;;39.50;29.50;;;;;;;;5055848;28;51469;-52
2023/01/28 12:59:05;;;;;;;;;40.00;31.00;;;;;;;;5056815;28;51974;-55
2023/01/28 13:02:15;;;;;;;;;34.25;29.00;;;;;;;;5058951;28;51475;-53
2023/01/28 13:05:07;;;;;;;;;40.00;31.50;;;;;;;;5057304;28;51389;-48
2023/01/28 13:08:00;;;;;;;;;35.00;29.75;;;;;;;;5057708;28;51121;-51
2023/01/28 13:10:45;;;;;;;;;31.75;27.50;;;;;;;;5060391;27;51046;-51
2023/01/28 13:13:33;;;;;;;;;31.00;28.50;;;;;;;;5056160;27;51098;-52
2023/01/28 13:16:18;;;;;;;;;37.50;30.50;;;;;;;;5056270;27;51119;-52
2023/01/28 13:19:22;;;;;;;;;42.75;32.00;;;;;;;;5057157;28;51363;-50
2023/01/28 13:22:26;;;;;;;;;35.25;30.75;;;;;;;;5059653;27;51165;-53
2023/01/28 13:25:26;;;;;;;;;28.00;23.50;;;;;;;;5060057;27;51613;-51
2023/01/28 13:28:23;;;;;;;;;28.25;26.25;;;;;;;;5058619;27;51378;-47
2023/01/28 13:31:13;;;;;;;;;29.75;25.75;;;;;;;;5053135;27;51337;-53
2023/01/28 13:33:57;;;;;;;;;32.50;29.50;;;;;;;;5058604;28;51575;-51
2023/01/28 13:36:46;;;;;;;;;25.50;25.00;;;;;;;;5052445;27;51210;-47
2023/01/28 13:39:33;;;;;;;;;30.50;25.75;;;;;;;;5056458;28;51209;-49
2023/01/28 13:42:25;;;;;;;;;28.00;24.75;;;;;;;;5056693;28;51468;-54
2023/01/28 13:45:29;;;;;;;;;28.00;23.50;;;;;;;;5058179;27;51223;-50
2023/01/28 13:48:42;;;;;;;;;27.25;24.00;;;;;;;;5056910;28;52076;-48
2023/01/28 13:51:37;;;;;;;;;27.50;26.25;;;;;;;;5053347;27;51153;-51
2023/01/28 13:54:22;;;;;;;;;31.75;26.25;;;;;;;;5054355;28;51407;-49
2023/01/28 13:57:19;;;;;;;;;27.00;23.75;;;;;;;;5056085;28;51254;-52
2023/01/28 14:00:24;;;;;;;;;28.25;27.75;;;;;;;;5056694;28;51526;-55
2023/01/28 14:03:27;;;;;;;;;32.50;26.75;;;;;;;;5054526;28;51157;-52
2023/01/28 14:06:37;;;;;;;;;28.50;23.00;;;;;;;;5057249;27;51555;-56
2023/01/28 14:09:22;;;;;;;;;19.50;16.00;;;;;;;;5056440;28;51348;-51
2023/01/28 14:12:23;;;;;;;;;27.25;20.00;;;;;;;;5055612;28;51260;-49
2023/01/28 14:15:18;;;;;;;;;30.50;25.50;;;;;;;;5054363;28;51154;-52
2023/01/28 14:18:14;;;;;;;;;30.25;24.75;;;;;;;;5063657;27;51545;-48
2023/01/28 14:21:00;;;;;;;;;28.50;26.00;;;;;;;;5059413;28;51114;-55
2023/01/28 14:23:49;;;;;;;;;26.75;24.25;;;;;;;;5056553;28;51186;-56
2023/01/28 14:26:37;;;;;;;;;28.00;25.25;;;;;;;;5055930;27;51166;-56
2023/01/28 14:29:40;;;;;;;;;26.75;25.25;;;;;;;;5054543;27;51127;-50
2023/01/28 14:32:28;;;;;;;;;27.75;25.00;;;;;;;;5040378;28;51005;-51
2023/01/28 14:35:17;;;;;;;;;29.25;27.50;;;;;;;;5036226;28;52110;-52
2023/01/28 14:38:07;;;;;;;;;26.25;21.50;;;;;;;;5037466;28;51144;-52
2023/01/28 14:40:52;;;;;;;;;33.50;26.75;;;;;;;;5041051;28;51231;-48
2023/01/28 14:43:38;;;;;;;;;27.25;24.75;;;;;;;;5045187;28;51111;-52
2023/01/28 14:46:23;;;;;;;;;34.25;27.50;;;;;;;;5037639;28;51212;-51
2023/01/28 14:49:34;;;;;;;;;27.25;26.25;;;;;;;;5043782;28;51424;-53
2023/01/28 14:52:19;;;;;;;;;35.00;28.00;;;;;;;;5038905;28;51158;-51
2023/01/28 14:55:24;;;;;;;;;24.00;21.50;;;;;;;;5037797;28;51476;-54
2023/01/28 14:58:14;;;;;;;;;33.00;29.00;;;;;;;;5034094;28;51229;-52
2023/01/28 15:00:59;;;;;;;;;36.00;30.00;;;;;;;;5038637;28;51167;-49
2023/01/28 15:03:44;;;;;;;;;28.75;23.25;;;;;;;;5038784;28;51150;-50
2023/01/28 15:06:30;;;;;;;;;32.50;28.25;;;;;;;;5038693;28;51147;-55
2023/01/28 15:09:15;;;;;;;;;25.00;24.25;;;;;;;;5034829;28;51479;-52
2023/01/28 15:11:59;;;;;;;;;26.75;24.25;;;;;;;;5038167;28;51376;-52
2023/01/28 15:14:44;;;;;;;;;29.00;24.00;;;;;;;;5039685;28;51063;-54
2023/01/28 15:17:28;;;;;;;;;29.25;26.25;;;;;;;;5037330;28;51164;-55
2023/01/28 15:20:18;;;;;;;;;28.50;25.00;;;;;;;;5034425;28;51279;-51
2023/01/28 15:23:05;;;;;;;;;29.75;22.75;;;;;;;;5035030;28;51593;-49
2023/01/28 15:25:49;;;;;;;;;30.25;24.75;;;;;;;;5038141;28;51224;-53
2023/01/28 15:28:36;;;;;;;;;30.75;26.75;;;;;;;;5035653;28;51476;-53
2023/01/28 15:31:20;;;;;;;;;28.00;24.00;;;;;;;;5036447;28;52548;-54
2023/01/28 15:34:10;;;;;;;;;31.75;28.25;;;;;;;;5043762;28;51131;-53
2023/01/28 15:37:01;;;;;;;;;29.00;26.00;;;;;;;;5040964;28;51386;-53
2023/01/28 15:39:45;;;;;;;;;23.75;22.75;;;;;;;;5042639;28;51314;-52
2023/01/28 15:42:30;;;;;;;;;29.50;25.25;;;;;;;;5044041;28;51025;-51
2023/01/28 15:45:16;;;;;;;;;24.75;23.00;;;;;;;;5042283;28;51393;-51
2023/01/28 15:48:03;;;;;;;;;26.00;25.00;;;;;;;;5045028;28;51485;-46
2023/01/28 15:50:56;;;;;;;;;27.75;24.50;;;;;;;;5043003;28;51104;-50
2023/01/28 15:53:45;;;;;;;;;28.00;23.75;;;;;;;;5028974;28;51152;-52
2023/01/28 15:56:29;;;;;;;;;25.75;22.25;;;;;;;;5044673;28;51174;-51
2023/01/28 15:59:29;;;;;;;;;25.75;21.25;;;;;;;;5043066;28;51130;-48
2023/01/28 16:02:14;;;;;;;;;30.00;25.75;;;;;;;;5044189;28;51518;-49
2023/01/28 16:04:59;;;;;;;;;27.25;21.50;;;;;;;;5041682;28;51167;-50
2023/01/28 16:07:45;;;;;;;;;29.25;25.00;;;;;;;;5039676;28;51153;-54
2023/01/28 16:10:29;;;;;;;;;30.50;21.25;;;;;;;;5039885;28;51202;-48
2023/01/28 16:13:32;;;;;;;;;30.50;24.25;;;;;;;;5042208;28;51588;-55
2023/01/28 16:16:25;;;;;;;;;24.50;21.50;;;;;;;;5041028;28;51448;-51
2023/01/28 16:19:19;;;;;;;;;22.75;19.50;;;;;;;;5041181;28;51119;-51
2023/01/28 16:22:03;;;;;;;;;25.50;22.50;;;;;;;;5041950;28;51587;-50
2023/01/28 16:24:52;;;;;;;;;23.75;23.00;;;;;;;;5042634;28;51468;-53
2023/01/28 16:27:37;;;;;;;;;27.75;26.00;;;;;;;;5040198;28;51200;-54
2023/01/28 16:30:21;;;;;;;;;29.00;24.25;;;;;;;;5047390;27;51615;-50
2023/01/28 16:33:16;;;;;;;;;30.00;28.00;;;;;;;;5057648;27;51132;-52
2023/01/28 16:36:00;;;;;;;;;26.75;25.00;;;;;;;;5056926;28;51323;-50
2023/01/28 16:38:45;;;;;;;;;31.50;23.50;;;;;;;;5059714;28;51355;-49
2023/01/28 16:41:32;;;;;;;;;25.00;23.25;;;;;;;;5057565;27;51352;-48
2023/01/28 16:44:16;;;;;;;;;27.50;22.00;;;;;;;;5057370;28;51228;-51
2023/01/28 16:47:03;;;;;;;;;24.25;22.50;;;;;;;;5057738;28;51187;-51
2023/01/28 16:49:47;;;;;;;;;26.50;22.25;;;;;;;;5057176;28;51125;-51
2023/01/28 16:52:32;;;;;;;;;25.50;22.50;;;;;;;;5057542;28;52172;-54
2023/01/28 16:55:17;;;;;;;;;29.50;23.75;;;;;;;;5056351;27;51015;-55
2023/01/28 16:58:02;;;;;;;;;28.50;26.00;;;;;;;;5057582;28;51168;-50